createdAt,value
2018-01-25T00:00:27.288Z,10.57
2018-01-25T00:02:55.193Z,10.62
2018-01-25T00:05:23.123Z,10.46
2018-01-25T00:07:51.049Z,10.27
2018-01-25T00:10:18.955Z,10.35
2018-01-25T00:12:46.906Z,10.43
2018-01-25T00:15:14.863Z,10.36
2018-01-25T00:17:42.814Z,10.41
2018-01-25T00:20:10.714Z,10.22
2018-01-25T00:22:38.641Z,10.18
2018-01-25T00:25:06.548Z,10.10
2018-01-25T00:27:34.479Z,10.11
2018-01-25T00:30:02.465Z,10.12
2018-01-25T00:32:30.381Z,10.05
2018-01-25T00:34:58.310Z,10.06
2018-01-25T00:37:26.212Z,9.84
2018-01-25T00:39:54.124Z,9.86
2018-01-25T00:42:22.057Z,9.76
2018-01-25T00:44:49.963Z,9.70
2018-01-25T00:47:17.885Z,9.65
2018-01-25T00:49:45.858Z,9.64
2018-01-25T00:52:13.786Z,9.80
2018-01-25T00:54:41.706Z,9.74
2018-01-25T00:57:09.661Z,9.86
2018-01-25T00:59:37.562Z,9.70
2018-01-25T01:02:05.612Z,9.57
2018-01-25T01:04:33.530Z,9.64
2018-01-25T01:07:01.423Z,9.77
2018-01-25T01:09:29.643Z,9.57
2018-01-25T01:11:57.717Z,9.51
2018-01-25T01:14:25.585Z,9.36
2018-01-25T01:16:53.526Z,9.59
2018-01-25T01:19:21.466Z,9.48
2018-01-25T01:21:49.377Z,9.36
2018-01-25T01:24:17.293Z,9.34
2018-01-25T01:26:45.277Z,9.21
2018-01-25T01:29:13.239Z,9.35
2018-01-25T01:31:41.157Z,9.33
2018-01-25T01:34:09.098Z,9.17
2018-01-25T01:36:37.025Z,9.16
2018-01-25T01:39:04.998Z,9.03
2018-01-25T01:41:32.942Z,9.07
2018-01-25T01:44:00.896Z,8.98
2018-01-25T01:46:28.869Z,8.87
2018-01-25T01:48:56.795Z,8.92
2018-01-25T01:51:24.744Z,8.92
2018-01-25T01:53:52.649Z,8.81
2018-01-25T01:56:20.618Z,8.75
2018-01-25T01:58:48.555Z,8.82
2018-01-25T02:01:16.493Z,8.71
2018-01-25T02:03:44.407Z,8.82
2018-01-25T02:06:12.338Z,8.92
2018-01-25T02:08:40.280Z,9.01
2018-01-25T02:11:08.194Z,8.90
2018-01-25T02:13:36.134Z,9.05
2018-01-25T02:16:04.044Z,9.07
2018-01-25T02:18:32.036Z,8.87
2018-01-25T02:21:00.038Z,8.89
2018-01-25T02:23:28.902Z,8.88
2018-01-25T02:25:56.828Z,8.82
2018-01-25T02:28:24.752Z,8.76
2018-01-25T02:30:52.670Z,8.80
2018-01-25T02:33:20.636Z,8.88
2018-01-25T02:35:48.536Z,8.89
2018-01-25T02:38:16.732Z,8.91
2018-01-25T02:40:44.596Z,8.89
2018-01-25T02:43:12.521Z,9.02
2018-01-25T02:45:40.458Z,8.87
2018-01-25T02:48:08.506Z,8.90
2018-01-25T02:50:36.428Z,8.79
2018-01-25T02:53:04.342Z,8.88
2018-01-25T02:55:32.289Z,9.12
2018-01-25T02:58:00.200Z,8.82
2018-01-25T03:00:28.101Z,8.95
2018-01-25T03:02:56.008Z,8.93
2018-01-25T03:05:23.921Z,8.98
2018-01-25T03:07:51.874Z,9.00
2018-01-25T03:10:19.798Z,8.94
2018-01-25T03:12:47.728Z,9.01
2018-01-25T03:15:15.617Z,8.73
2018-01-25T03:17:43.542Z,8.82
2018-01-25T03:20:11.472Z,8.74
2018-01-25T03:22:39.387Z,8.83
2018-01-25T03:25:07.430Z,8.64
2018-01-25T03:27:35.320Z,8.67
2018-01-25T03:30:03.247Z,8.79
2018-01-25T03:32:31.174Z,8.73
2018-01-25T03:34:59.089Z,8.64
2018-01-25T03:37:26.997Z,8.71
2018-01-25T03:39:54.932Z,8.77
2018-01-25T03:42:22.934Z,8.65
2018-01-25T03:44:50.844Z,8.58
2018-01-25T03:47:18.770Z,8.68
2018-01-25T03:49:46.692Z,8.75
2018-01-25T03:52:14.623Z,8.75
2018-01-25T03:54:42.530Z,8.66
2018-01-25T03:57:10.499Z,8.68
2018-01-25T03:59:38.581Z,8.76
2018-01-25T04:02:06.474Z,8.70
2018-01-25T04:04:34.385Z,8.70
2018-01-25T04:07:02.339Z,8.65
2018-01-25T04:09:30.220Z,8.70
2018-01-25T04:11:58.151Z,8.59
2018-01-25T04:14:26.097Z,8.73
2018-01-25T04:16:54.069Z,8.65
2018-01-25T04:19:21.997Z,8.66
2018-01-25T04:21:49.992Z,8.70
2018-01-25T04:24:17.902Z,8.72
2018-01-25T04:26:45.830Z,8.62
2018-01-25T04:29:13.757Z,8.78
2018-01-25T04:31:41.681Z,8.78
2018-01-25T04:34:09.605Z,8.79
2018-01-25T04:36:37.562Z,8.77
2018-01-25T04:39:05.473Z,8.59
2018-01-25T04:41:33.399Z,8.71
2018-01-25T04:44:01.305Z,8.77
2018-01-25T04:46:29.214Z,8.53
2018-01-25T04:48:57.146Z,8.65
2018-01-25T04:51:25.086Z,8.82
2018-01-25T04:53:53.368Z,8.77
2018-01-25T04:56:21.275Z,8.73
2018-01-25T04:58:49.197Z,8.60
2018-01-25T05:01:17.108Z,8.70
2018-01-25T05:03:45.040Z,8.55
2018-01-25T05:06:12.997Z,8.45
2018-01-25T05:08:40.919Z,8.57
2018-01-25T05:11:08.874Z,8.50
2018-01-25T05:13:36.783Z,8.61
2018-01-25T05:16:04.706Z,8.47
2018-01-25T05:18:32.609Z,8.51
2018-01-25T05:21:01.053Z,8.51
2018-01-25T05:23:28.962Z,8.56
2018-01-25T05:25:56.894Z,8.61
2018-01-25T05:28:24.811Z,8.58
2018-01-25T05:30:52.749Z,8.66
2018-01-25T05:33:20.670Z,8.49
2018-01-25T05:35:48.620Z,8.50
2018-01-25T05:38:16.525Z,8.46
2018-01-25T05:40:44.460Z,8.59
2018-01-25T05:43:12.382Z,8.51
2018-01-25T05:45:40.298Z,8.45
2018-01-25T05:48:08.229Z,8.41
2018-01-25T05:50:36.172Z,8.30
2018-01-25T05:53:04.717Z,8.30
2018-01-25T05:55:32.622Z,8.53
2018-01-25T05:58:00.558Z,8.45
2018-01-25T06:00:28.457Z,8.35
2018-01-25T06:02:56.382Z,8.30
2018-01-25T06:05:24.304Z,8.29
2018-01-25T06:07:52.241Z,8.36
2018-01-25T06:10:20.206Z,8.36
2018-01-25T06:12:48.120Z,8.43
2018-01-25T06:15:16.045Z,8.53
2018-01-25T06:17:43.973Z,8.51
2018-01-25T06:20:11.905Z,8.49
2018-01-25T06:22:39.831Z,8.53
2018-01-25T06:25:07.785Z,8.48
2018-01-25T06:27:35.705Z,8.50
2018-01-25T06:30:03.639Z,8.51
2018-01-25T06:32:31.542Z,8.49
2018-01-25T06:34:59.458Z,8.45
2018-01-25T06:37:27.405Z,8.59
2018-01-25T06:39:55.347Z,8.48
2018-01-25T06:42:23.260Z,8.44
2018-01-25T06:44:51.189Z,8.46
2018-01-25T06:47:19.085Z,8.57
2018-01-25T06:49:47.051Z,8.53
2018-01-25T06:52:15.026Z,8.61
2018-01-25T06:54:42.991Z,8.60
2018-01-25T06:57:10.945Z,8.45
2018-01-25T06:59:38.907Z,8.52
2018-01-25T07:02:06.872Z,8.46
2018-01-25T07:04:34.810Z,8.45
2018-01-25T07:07:03.133Z,8.41
2018-01-25T07:09:31.202Z,8.52
2018-01-25T07:11:59.140Z,8.57
2018-01-25T07:14:27.129Z,8.63
2018-01-25T07:16:55.886Z,8.43
2018-01-25T07:19:23.817Z,8.38
2018-01-25T07:21:51.784Z,8.38
2018-01-25T07:24:19.693Z,8.39
2018-01-25T07:26:47.610Z,8.20
2018-01-25T07:29:15.553Z,8.35
2018-01-25T07:31:43.466Z,8.50
2018-01-25T07:34:11.431Z,8.39
2018-01-25T07:36:39.353Z,8.34
2018-01-25T07:39:07.332Z,8.44
2018-01-25T07:41:35.261Z,8.26
2018-01-25T07:44:03.267Z,8.17
2018-01-25T07:46:31.406Z,8.14
2018-01-25T07:48:59.380Z,8.28
2018-01-25T07:51:27.282Z,8.19
2018-01-25T07:53:55.260Z,8.11
2018-01-25T07:56:23.185Z,8.05
2018-01-25T07:58:51.126Z,8.02
2018-01-25T08:01:19.100Z,8.13
2018-01-25T08:03:47.071Z,8.26
2018-01-25T08:06:15.000Z,8.23
2018-01-25T08:08:42.981Z,8.24
2018-01-25T08:11:10.993Z,8.26
2018-01-25T08:13:39.696Z,8.14
2018-01-25T08:16:13.286Z,8.20
2018-01-25T08:18:41.239Z,8.21
2018-01-25T08:21:09.161Z,8.32
2018-01-25T08:23:37.863Z,8.46
2018-01-25T08:26:05.766Z,8.30
2018-01-25T08:28:33.735Z,8.26
2018-01-25T08:31:01.987Z,8.39
2018-01-25T08:33:29.959Z,8.26
2018-01-25T08:35:57.911Z,8.44
2018-01-25T08:38:25.983Z,8.65
2018-01-25T08:40:53.898Z,8.57
2018-01-25T08:43:21.872Z,8.57
2018-01-25T08:45:49.971Z,8.58
2018-01-25T08:48:17.904Z,8.55
2018-01-25T08:50:45.845Z,8.49
2018-01-25T08:53:13.803Z,8.60
2018-01-25T08:55:41.837Z,8.61
2018-01-25T08:58:09.788Z,8.65
2018-01-25T09:00:37.722Z,8.92
2018-01-25T09:03:05.702Z,8.87
2018-01-25T09:05:33.665Z,8.74
2018-01-25T09:08:02.104Z,8.87
2018-01-25T09:10:30.051Z,8.75
2018-01-25T09:12:57.978Z,8.70
2018-01-25T09:15:25.884Z,8.98
2018-01-25T09:17:53.819Z,9.41
2018-01-25T09:20:21.795Z,9.39
2018-01-25T09:22:49.765Z,9.27
2018-01-25T09:25:17.718Z,9.33
2018-01-25T09:27:45.625Z,9.16
2018-01-25T09:30:13.562Z,9.25
2018-01-25T09:32:41.502Z,9.04
2018-01-25T09:35:09.507Z,9.04
2018-01-25T09:37:37.909Z,8.90
2018-01-25T09:40:05.901Z,8.96
2018-01-25T09:42:33.878Z,8.90
2018-01-25T09:45:01.898Z,9.18
2018-01-25T09:47:29.821Z,9.10
2018-01-25T09:49:57.734Z,8.86
2018-01-25T09:52:26.045Z,8.94
2018-01-25T09:54:53.991Z,9.03
2018-01-25T09:57:22.010Z,9.26
2018-01-25T09:59:49.937Z,9.24
2018-01-25T10:02:17.862Z,9.14
2018-01-25T10:04:45.785Z,9.07
2018-01-25T10:07:13.741Z,9.00
2018-01-25T10:09:41.666Z,9.12
2018-01-25T10:12:09.694Z,9.24
2018-01-25T10:14:37.864Z,9.12
2018-01-25T10:17:05.789Z,9.09
2018-01-25T10:19:33.697Z,9.31
2018-01-25T10:22:02.438Z,9.40
2018-01-25T10:24:30.367Z,9.47
2018-01-25T10:26:58.298Z,9.30
2018-01-25T10:29:26.204Z,9.36
2018-01-25T10:31:54.380Z,9.51
2018-01-25T10:34:22.306Z,9.54
2018-01-25T10:36:50.226Z,9.36
2018-01-25T10:39:18.162Z,9.31
2018-01-25T10:41:46.085Z,9.39
2018-01-25T10:44:14.046Z,9.41
2018-01-25T10:46:41.949Z,9.44
2018-01-25T10:49:09.894Z,9.49
2018-01-25T10:51:37.837Z,9.46
2018-01-25T10:54:05.866Z,9.52
2018-01-25T10:56:33.957Z,9.56
2018-01-25T10:59:01.996Z,9.62
2018-01-25T11:01:35.661Z,9.60
2018-01-25T11:04:03.653Z,9.80
2018-01-25T11:06:32.587Z,9.98
2018-01-25T11:09:00.554Z,10.38
2018-01-25T11:11:28.459Z,9.97
2018-01-25T11:13:56.388Z,10.31
2018-01-25T11:16:24.298Z,10.20
2018-01-25T11:18:52.265Z,10.26
2018-01-25T11:21:20.201Z,10.30
2018-01-25T11:23:48.367Z,10.51
2018-01-25T11:26:16.345Z,10.51
2018-01-25T11:28:44.310Z,10.45
2018-01-25T11:31:12.250Z,10.34
2018-01-25T11:33:40.161Z,10.09
2018-01-25T11:36:08.113Z,10.11
2018-01-25T11:38:36.131Z,10.11
2018-01-25T11:41:04.066Z,10.09
2018-01-25T11:43:32.165Z,10.22
2018-01-25T11:46:00.138Z,9.88
2018-01-25T11:48:28.825Z,9.79
2018-01-25T11:50:56.767Z,10.01
2018-01-25T11:53:24.717Z,9.94
2018-01-25T11:55:53.754Z,10.16
2018-01-25T11:58:21.678Z,10.23
2018-01-25T12:00:49.723Z,10.20
2018-01-25T12:03:17.628Z,10.19
2018-01-25T12:05:45.664Z,9.93
2018-01-25T12:08:13.527Z,10.09
2018-01-25T12:10:41.499Z,10.21
2018-01-25T12:13:09.436Z,10.20
2018-01-25T12:15:37.366Z,9.97
2018-01-25T12:18:05.285Z,9.94
2018-01-25T12:20:33.213Z,9.89
2018-01-25T12:23:01.986Z,10.08
2018-01-25T12:25:29.923Z,10.01
2018-01-25T12:27:57.823Z,9.92
2018-01-25T12:30:25.801Z,10.06
2018-01-25T12:32:53.707Z,9.92
2018-01-25T12:35:21.680Z,9.93
2018-01-25T12:37:49.614Z,9.79
2018-01-25T12:40:17.551Z,9.81
2018-01-25T12:42:45.489Z,9.74
2018-01-25T12:45:13.422Z,9.69
2018-01-25T12:47:41.373Z,9.66
2018-01-25T12:50:09.279Z,9.83
2018-01-25T12:52:37.223Z,9.70
2018-01-25T12:55:05.137Z,9.83
2018-01-25T12:57:33.111Z,9.94
2018-01-25T13:00:01.141Z,9.72
2018-01-25T13:02:29.068Z,9.83
2018-01-25T13:04:57.031Z,9.60
2018-01-25T13:07:24.979Z,9.59
2018-01-25T13:09:52.873Z,9.62
2018-01-25T13:12:20.777Z,9.75
2018-01-25T13:14:48.949Z,9.83
2018-01-25T13:17:16.966Z,9.63
2018-01-25T13:19:44.973Z,9.80
2018-01-25T13:22:12.893Z,9.72
2018-01-25T13:24:40.844Z,9.85
2018-01-25T13:27:08.877Z,9.72
2018-01-25T13:29:36.715Z,9.71
2018-01-25T13:32:04.651Z,9.71
2018-01-25T13:34:32.552Z,9.80
2018-01-25T13:37:00.474Z,9.84
2018-01-25T13:39:28.446Z,9.97
2018-01-25T13:41:56.391Z,9.83
2018-01-25T13:44:24.468Z,9.84
2018-01-25T13:46:52.406Z,9.81
2018-01-25T13:49:20.722Z,9.90
2018-01-25T13:51:48.617Z,9.77
2018-01-25T13:54:16.550Z,9.82
2018-01-25T13:56:44.554Z,9.86
2018-01-25T13:59:12.507Z,9.71
2018-01-25T14:01:40.477Z,9.88
2018-01-25T14:04:08.389Z,9.86
2018-01-25T14:06:36.324Z,9.95
2018-01-25T14:09:04.213Z,9.94
2018-01-25T14:11:32.440Z,9.84
2018-01-25T14:14:00.535Z,9.47
2018-01-25T14:16:28.553Z,9.61
2018-01-25T14:18:56.465Z,9.82
2018-01-25T14:21:24.393Z,9.67
2018-01-25T14:23:52.378Z,9.72
2018-01-25T14:26:20.310Z,9.92
2018-01-25T14:28:48.262Z,9.77
2018-01-25T14:31:16.299Z,9.59
2018-01-25T14:33:44.253Z,9.66
2018-01-25T14:36:12.141Z,9.55
2018-01-25T14:38:40.072Z,9.39
2018-01-25T14:41:08.002Z,9.59
2018-01-25T14:43:35.934Z,9.41
2018-01-25T14:46:03.865Z,9.27
2018-01-25T14:48:31.808Z,9.37
2018-01-25T14:50:59.777Z,9.30
2018-01-25T14:53:27.711Z,9.20
2018-01-25T14:55:55.613Z,9.33
2018-01-25T14:58:23.617Z,9.22
2018-01-25T15:00:51.561Z,9.12
2018-01-25T15:03:19.590Z,9.20
2018-01-25T15:05:47.526Z,9.12
2018-01-25T15:08:15.459Z,9.19
2018-01-25T15:10:43.461Z,9.21
2018-01-25T15:13:11.412Z,9.19
2018-01-25T15:15:39.706Z,9.17
2018-01-25T15:18:07.643Z,9.21
2018-01-25T15:20:35.566Z,9.20
2018-01-25T15:23:03.506Z,9.09
2018-01-25T15:28:33.786Z,9.15
2018-01-25T15:31:01.856Z,9.15
2018-01-25T15:33:29.769Z,9.21
2018-01-25T15:35:58.370Z,9.05
2018-01-25T15:38:26.381Z,8.93
2018-01-25T15:40:54.305Z,8.85
2018-01-25T15:43:22.456Z,8.86
2018-01-25T15:45:50.398Z,8.78
2018-01-25T15:48:18.363Z,8.76
2018-01-25T15:50:47.116Z,8.82
2018-01-25T15:53:15.076Z,8.78
2018-01-25T15:55:43.028Z,8.80
2018-01-25T15:58:11.042Z,8.72
2018-01-25T16:00:38.968Z,8.73
2018-01-25T16:03:06.914Z,8.76
2018-01-25T16:05:34.842Z,8.81
2018-01-25T16:08:02.764Z,8.75
2018-01-25T16:10:30.716Z,8.67
2018-01-25T16:12:58.684Z,8.48
2018-01-25T16:15:26.594Z,8.63
2018-01-25T16:17:54.515Z,8.59
2018-01-25T16:20:22.455Z,8.46
2018-01-25T16:22:50.370Z,8.56
2018-01-25T16:25:18.316Z,8.59
2018-01-25T16:27:46.233Z,8.44
2018-01-25T16:30:14.178Z,8.55
2018-01-25T16:32:42.810Z,8.43
2018-01-25T16:35:10.712Z,8.37
2018-01-25T16:37:38.647Z,8.36
2018-01-25T16:40:06.579Z,8.22
2018-01-25T16:42:34.569Z,8.39
2018-01-25T16:45:02.489Z,8.31
2018-01-25T16:47:30.414Z,8.38
2018-01-25T16:49:58.449Z,8.29
2018-01-25T16:52:26.392Z,8.28
2018-01-25T16:54:54.393Z,8.20
2018-01-25T16:57:22.294Z,8.23
2018-01-25T16:59:50.216Z,8.20
2018-01-25T17:02:18.140Z,8.23
2018-01-25T17:04:46.106Z,7.99
2018-01-25T17:07:14.075Z,7.99
2018-01-25T17:09:42.038Z,8.14
2018-01-25T17:12:09.991Z,8.20
2018-01-25T17:14:37.930Z,8.08
2018-01-25T17:17:05.846Z,8.09
2018-01-25T17:19:33.777Z,8.05
2018-01-25T17:22:01.713Z,8.13
2018-01-25T17:24:29.671Z,8.08
2018-01-25T17:26:57.748Z,8.12
2018-01-25T17:29:26.077Z,8.07
2018-01-25T17:31:53.991Z,8.05
2018-01-25T17:34:21.896Z,7.93
2018-01-25T17:36:49.820Z,7.91
2018-01-25T17:39:17.797Z,7.86
2018-01-25T17:41:45.869Z,7.97
2018-01-25T17:44:13.844Z,7.86
2018-01-25T17:46:41.947Z,7.83
2018-01-25T17:49:09.897Z,7.77
2018-01-25T17:51:38.289Z,7.83
2018-01-25T17:54:06.228Z,7.74
2018-01-25T17:56:34.182Z,8.00
2018-01-25T17:59:02.186Z,7.86
2018-01-25T18:01:30.281Z,7.89
2018-01-25T18:03:58.274Z,7.82
2018-01-25T18:06:26.451Z,7.79
2018-01-25T18:08:55.332Z,7.79
2018-01-25T18:11:23.418Z,7.83
2018-01-25T18:13:51.369Z,7.84
2018-01-25T18:16:19.397Z,7.92
2018-01-25T18:18:47.465Z,7.77
2018-01-25T18:21:15.644Z,7.74
2018-01-25T18:23:43.705Z,7.73
2018-01-25T18:26:11.711Z,7.69
2018-01-25T18:28:39.799Z,7.78
2018-01-25T18:31:07.729Z,7.78
2018-01-25T18:33:35.887Z,7.78
2018-01-25T18:36:03.820Z,7.77
2018-01-25T18:38:32.748Z,7.89
2018-01-25T18:41:00.781Z,7.86
2018-01-25T18:43:28.735Z,7.69
2018-01-25T18:45:57.208Z,7.65
2018-01-25T18:48:25.154Z,7.59
2018-01-25T18:50:53.161Z,7.55
2018-01-25T18:53:21.130Z,7.62
2018-01-25T18:55:49.064Z,7.73
2018-01-25T18:58:17.010Z,7.70
2018-01-25T19:00:44.924Z,7.67
2018-01-25T19:03:12.853Z,7.74
2018-01-25T19:05:40.828Z,7.71
2018-01-25T19:08:08.818Z,7.69
2018-01-25T19:10:36.793Z,7.74
2018-01-25T19:13:04.727Z,7.74
2018-01-25T19:15:32.754Z,7.78
2018-01-25T19:18:01.353Z,7.62
2018-01-25T19:20:29.279Z,7.53
2018-01-25T19:22:57.217Z,7.59
2018-01-25T19:25:25.142Z,7.47
2018-01-25T19:27:53.067Z,7.41
2018-01-25T19:30:21.128Z,7.55
2018-01-25T19:32:49.088Z,7.52
2018-01-25T19:35:17.099Z,7.57
2018-01-25T19:37:45.021Z,7.62
2018-01-25T19:40:12.986Z,7.68
2018-01-25T19:42:40.901Z,7.74
2018-01-25T19:45:08.839Z,7.78
2018-01-25T19:47:36.767Z,7.71
2018-01-25T19:50:04.780Z,7.48
2018-01-25T19:52:32.714Z,7.52
2018-01-25T19:55:00.668Z,7.57
2018-01-25T19:57:28.658Z,7.62
2018-01-25T19:59:56.588Z,7.50
2018-01-25T20:02:24.588Z,7.48
2018-01-25T20:04:52.498Z,7.49
2018-01-25T20:07:20.434Z,7.57
2018-01-25T20:09:48.470Z,7.54
2018-01-25T20:12:16.442Z,7.52
2018-01-25T20:14:44.712Z,7.47
2018-01-25T20:17:12.676Z,7.47
2018-01-25T20:19:41.444Z,7.49
2018-01-25T20:22:09.674Z,7.53
2018-01-25T20:24:37.608Z,7.52
2018-01-25T20:27:05.539Z,7.42
2018-01-25T20:29:33.469Z,7.58
2018-01-25T20:32:01.389Z,7.48
2018-01-25T20:34:29.341Z,7.42
2018-01-25T20:36:57.279Z,7.39
2018-01-25T20:39:25.199Z,7.34
2018-01-25T20:41:53.134Z,7.33
2018-01-25T20:44:21.059Z,7.44
2018-01-25T20:46:49.099Z,7.32
2018-01-25T20:49:17.086Z,7.18
2018-01-25T20:51:45.038Z,7.24
2018-01-25T20:54:13.080Z,7.18
2018-01-25T20:56:41.037Z,7.14
2018-01-25T20:59:08.978Z,7.17
2018-01-25T21:01:37.383Z,7.16
2018-01-25T21:04:05.375Z,7.15
2018-01-25T21:06:33.324Z,7.16
2018-01-25T21:09:01.272Z,7.19
2018-01-25T21:11:29.189Z,7.24
2018-01-25T21:13:57.121Z,7.30
2018-01-25T21:16:25.086Z,7.22
2018-01-25T21:18:53.006Z,7.14
2018-01-25T21:21:21.066Z,7.14
2018-01-25T21:23:48.997Z,7.26
2018-01-25T21:26:16.950Z,7.26
2018-01-25T21:28:44.894Z,7.26
2018-01-25T21:31:12.820Z,7.28
2018-01-25T21:33:40.755Z,7.31
2018-01-25T21:36:08.658Z,7.31
2018-01-25T21:38:36.616Z,7.23
2018-01-25T21:41:04.533Z,7.30
2018-01-25T21:43:32.493Z,7.10
2018-01-25T21:46:00.400Z,7.16
2018-01-25T21:48:28.452Z,7.09
2018-01-25T21:50:56.681Z,7.14
2018-01-25T21:53:24.672Z,6.99
2018-01-25T21:55:52.818Z,7.07
2018-01-25T21:58:20.784Z,7.16
2018-01-25T22:00:48.765Z,7.04
2018-01-25T22:03:16.695Z,7.14
2018-01-25T22:05:44.632Z,7.03
2018-01-25T22:08:12.545Z,6.84
2018-01-25T22:10:40.521Z,6.90
2018-01-25T22:13:08.487Z,6.93
2018-01-25T22:15:36.406Z,6.93
2018-01-25T22:18:04.351Z,6.97
2018-01-25T22:20:32.377Z,6.98
2018-01-25T22:23:00.315Z,6.94
2018-01-25T22:25:28.234Z,6.97
2018-01-25T22:27:56.180Z,6.97
2018-01-25T22:30:24.122Z,6.88
2018-01-25T22:32:52.067Z,6.85
2018-01-25T22:35:20.063Z,6.79
2018-01-25T22:37:48.171Z,6.84
2018-01-25T22:40:16.461Z,6.89
2018-01-25T22:42:44.381Z,6.94
2018-01-25T22:45:12.924Z,6.91
2018-01-25T22:47:40.856Z,6.84
2018-01-25T22:50:08.766Z,6.81
2018-01-25T22:52:36.797Z,6.98
2018-01-25T22:55:04.738Z,6.93
2018-01-25T22:57:32.709Z,6.86
2018-01-25T23:00:00.678Z,6.88
2018-01-25T23:02:28.597Z,6.93
2018-01-25T23:04:56.570Z,7.00
2018-01-25T23:07:24.533Z,6.93
2018-01-25T23:09:52.452Z,6.85
2018-01-25T23:12:20.573Z,6.88
2018-01-25T23:14:48.500Z,6.89
2018-01-25T23:17:16.625Z,6.98
2018-01-25T23:19:44.706Z,6.99
2018-01-25T23:22:12.699Z,7.00
2018-01-25T23:24:40.764Z,7.00
2018-01-25T23:27:08.698Z,7.04
2018-01-25T23:29:36.706Z,7.00
2018-01-25T23:32:04.667Z,7.01
2018-01-25T23:34:32.743Z,7.08
2018-01-25T23:37:01.441Z,7.07
2018-01-25T23:39:29.511Z,6.91
2018-01-25T23:41:57.439Z,6.94
2018-01-25T23:44:25.349Z,7.00
2018-01-25T23:46:53.310Z,6.90
2018-01-25T23:49:21.874Z,6.81
2018-01-25T23:51:49.868Z,6.80
2018-01-25T23:54:17.841Z,6.82
2018-01-25T23:56:45.790Z,6.82
2018-01-25T23:59:13.908Z,6.76
